sensor_id;sensor_type;location;lat;lon;timestamp;temperature;humidity
14095;DHT22;18096;48.142;16.290;2022-09-21T00:01:19;9.90;91.40
14095;DHT22;18096;48.142;16.290;2022-09-21T00:03:45;9.90;91.40
14095;DHT22;18096;48.142;16.290;2022-09-21T00:06:14;9.90;91.40
14095;DHT22;18096;48.142;16.290;2022-09-21T00:08:41;9.90;91.40
14095;DHT22;18096;48.142;16.290;2022-09-21T00:11:11;9.90;91.20
14095;DHT22;18096;48.142;16.290;2022-09-21T00:13:38;9.90;91.20
14095;DHT22;18096;48.142;16.290;2022-09-21T00:16:05;9.90;91.00
14095;DHT22;18096;48.142;16.290;2022-09-21T00:18:32;9.90;90.90
14095;DHT22;18096;48.142;16.290;2022-09-21T00:20:58;9.90;90.90
14095;DHT22;18096;48.142;16.290;2022-09-21T00:23:23;10.00;90.50
14095;DHT22;18096;48.142;16.290;2022-09-21T00:25:49;10.00;90.40
14095;DHT22;18096;48.142;16.290;2022-09-21T00:28:15;10.00;90.40
14095;DHT22;18096;48.142;16.290;2022-09-21T00:30:41;10.00;90.40
14095;DHT22;18096;48.142;16.290;2022-09-21T00:33:06;9.90;90.80
14095;DHT22;18096;48.142;16.290;2022-09-21T00:35:32;9.90;90.80
14095;DHT22;18096;48.142;16.290;2022-09-21T00:38:02;9.90;90.80
14095;DHT22;18096;48.142;16.290;2022-09-21T00:40:28;9.90;90.80
14095;DHT22;18096;48.142;16.290;2022-09-21T00:43:10;9.90;90.90
14095;DHT22;18096;48.142;16.290;2022-09-21T00:45:36;9.90;90.90
14095;DHT22;18096;48.142;16.290;2022-09-21T00:48:02;9.90;90.90
14095;DHT22;18096;48.142;16.290;2022-09-21T00:50:28;9.90;90.90
14095;DHT22;18096;48.142;16.290;2022-09-21T00:52:56;9.90;90.90
14095;DHT22;18096;48.142;16.290;2022-09-21T00:55:31;9.90;91.00
14095;DHT22;18096;48.142;16.290;2022-09-21T00:58:02;9.90;90.90
14095;DHT22;18096;48.142;16.290;2022-09-21T01:00:29;9.80;90.90
14095;DHT22;18096;48.142;16.290;2022-09-21T01:02:55;9.80;90.90
14095;DHT22;18096;48.142;16.290;2022-09-21T01:05:26;9.80;90.90
14095;DHT22;18096;48.142;16.290;2022-09-21T01:07:52;9.80;90.90
14095;DHT22;18096;48.142;16.290;2022-09-21T01:10:19;9.80;90.90
14095;DHT22;18096;48.142;16.290;2022-09-21T01:13:06;9.80;90.90
14095;DHT22;18096;48.142;16.290;2022-09-21T01:16:07;9.80;90.90
14095;DHT22;18096;48.142;16.290;2022-09-21T01:18:55;9.80;90.90
14095;DHT22;18096;48.142;16.290;2022-09-21T01:21:25;9.80;91.00
14095;DHT22;18096;48.142;16.290;2022-09-21T01:24:32;9.80;91.00
14095;DHT22;18096;48.142;16.290;2022-09-21T01:27:13;9.80;91.00
14095;DHT22;18096;48.142;16.290;2022-09-21T01:29:51;9.80;91.00
14095;DHT22;18096;48.142;16.290;2022-09-21T01:32:24;9.80;91.00
14095;DHT22;18096;48.142;16.290;2022-09-21T01:35:04;9.80;91.10
14095;DHT22;18096;48.142;16.290;2022-09-21T01:37:46;9.80;91.00
14095;DHT22;18096;48.142;16.290;2022-09-21T01:40:35;9.80;91.00
14095;DHT22;18096;48.142;16.290;2022-09-21T01:43:03;9.80;91.00
14095;DHT22;18096;48.142;16.290;2022-09-21T01:45:32;9.80;90.90
14095;DHT22;18096;48.142;16.290;2022-09-21T01:48:00;9.80;90.90
14095;DHT22;18096;48.142;16.290;2022-09-21T01:50:30;9.80;90.90
14095;DHT22;18096;48.142;16.290;2022-09-21T01:53:05;9.90;91.00
14095;DHT22;18096;48.142;16.290;2022-09-21T01:55:56;9.80;91.10
14095;DHT22;18096;48.142;16.290;2022-09-21T01:58:41;9.80;91.00
14095;DHT22;18096;48.142;16.290;2022-09-21T02:01:11;9.80;90.90
14095;DHT22;18096;48.142;16.290;2022-09-21T02:03:46;9.80;90.90
14095;DHT22;18096;48.142;16.290;2022-09-21T02:06:14;9.80;90.90
14095;DHT22;18096;48.142;16.290;2022-09-21T02:08:40;9.80;90.80
14095;DHT22;18096;48.142;16.290;2022-09-21T02:11:06;9.80;90.90
14095;DHT22;18096;48.142;16.290;2022-09-21T02:13:38;9.80;90.80
14095;DHT22;18096;48.142;16.290;2022-09-21T02:18:51;9.90;90.70
14095;DHT22;18096;48.142;16.290;2022-09-21T02:21:57;9.90;90.60
14095;DHT22;18096;48.142;16.290;2022-09-21T02:29:36;10.00;90.10
14095;DHT22;18096;48.142;16.290;2022-09-21T02:32:06;10.00;90.10
14095;DHT22;18096;48.142;16.290;2022-09-21T02:34:58;9.90;90.50
14095;DHT22;18096;48.142;16.290;2022-09-21T02:37:44;10.00;90.00
14095;DHT22;18096;48.142;16.290;2022-09-21T02:40:36;10.00;90.00
14095;DHT22;18096;48.142;16.290;2022-09-21T02:43:13;9.90;90.50
14095;DHT22;18096;48.142;16.290;2022-09-21T02:45:51;9.90;90.50
14095;DHT22;18096;48.142;16.290;2022-09-21T02:48:27;9.90;90.40
14095;DHT22;18096;48.142;16.290;2022-09-21T02:50:57;9.90;90.40
14095;DHT22;18096;48.142;16.290;2022-09-21T02:53:26;9.90;90.40
14095;DHT22;18096;48.142;16.290;2022-09-21T02:55:54;9.90;90.40
14095;DHT22;18096;48.142;16.290;2022-09-21T02:58:21;9.90;90.40
14095;DHT22;18096;48.142;16.290;2022-09-21T03:00:48;9.90;90.40
14095;DHT22;18096;48.142;16.290;2022-09-21T03:03:16;9.90;90.40
14095;DHT22;18096;48.142;16.290;2022-09-21T03:05:45;9.90;90.40
14095;DHT22;18096;48.142;16.290;2022-09-21T03:08:10;9.90;90.40
14095;DHT22;18096;48.142;16.290;2022-09-21T03:10:36;9.90;90.30
14095;DHT22;18096;48.142;16.290;2022-09-21T03:13:05;9.90;90.30
14095;DHT22;18096;48.142;16.290;2022-09-21T03:15:31;10.00;90.00
14095;DHT22;18096;48.142;16.290;2022-09-21T03:17:57;10.00;89.80
14095;DHT22;18096;48.142;16.290;2022-09-21T03:20:23;10.00;89.80
14095;DHT22;18096;48.142;16.290;2022-09-21T03:22:49;10.00;89.80
14095;DHT22;18096;48.142;16.290;2022-09-21T03:25:15;10.00;89.80
14095;DHT22;18096;48.142;16.290;2022-09-21T03:27:40;10.00;89.80
14095;DHT22;18096;48.142;16.290;2022-09-21T03:30:07;10.00;89.70
14095;DHT22;18096;48.142;16.290;2022-09-21T03:32:33;10.00;89.70
14095;DHT22;18096;48.142;16.290;2022-09-21T03:34:58;10.10;89.60
14095;DHT22;18096;48.142;16.290;2022-09-21T03:37:24;10.10;89.60
14095;DHT22;18096;48.142;16.290;2022-09-21T03:39:50;10.10;89.60
14095;DHT22;18096;48.142;16.290;2022-09-21T03:42:15;10.10;89.50
14095;DHT22;18096;48.142;16.290;2022-09-21T03:44:41;10.10;89.50
14095;DHT22;18096;48.142;16.290;2022-09-21T03:47:07;10.10;89.60
14095;DHT22;18096;48.142;16.290;2022-09-21T03:49:33;10.10;89.60
14095;DHT22;18096;48.142;16.290;2022-09-21T03:51:59;10.10;89.50
14095;DHT22;18096;48.142;16.290;2022-09-21T03:54:25;10.10;89.60
14095;DHT22;18096;48.142;16.290;2022-09-21T03:56:51;10.10;89.60
14095;DHT22;18096;48.142;16.290;2022-09-21T03:59:16;10.00;89.60
14095;DHT22;18096;48.142;16.290;2022-09-21T04:01:42;10.00;89.70
14095;DHT22;18096;48.142;16.290;2022-09-21T04:04:08;10.00;89.60
14095;DHT22;18096;48.142;16.290;2022-09-21T04:06:34;10.00;89.70
14095;DHT22;18096;48.142;16.290;2022-09-21T04:09:00;9.90;90.20
14095;DHT22;18096;48.142;16.290;2022-09-21T04:11:27;9.90;90.30
14095;DHT22;18096;48.142;16.290;2022-09-21T04:13:53;9.90;90.30
14095;DHT22;18096;48.142;16.290;2022-09-21T04:16:22;9.90;90.30
14095;DHT22;18096;48.142;16.290;2022-09-21T04:18:49;9.90;90.30
14095;DHT22;18096;48.142;16.290;2022-09-21T04:21:16;9.90;90.40
14095;DHT22;18096;48.142;16.290;2022-09-21T04:23:41;9.90;90.50
14095;DHT22;18096;48.142;16.290;2022-09-21T04:26:28;9.90;90.50
14095;DHT22;18096;48.142;16.290;2022-09-21T04:28:54;9.80;90.40
14095;DHT22;18096;48.142;16.290;2022-09-21T04:31:21;9.80;90.50
14095;DHT22;18096;48.142;16.290;2022-09-21T04:33:48;9.80;90.60
14095;DHT22;18096;48.142;16.290;2022-09-21T04:36:15;9.80;90.70
14095;DHT22;18096;48.142;16.290;2022-09-21T04:38:41;9.70;90.70
14095;DHT22;18096;48.142;16.290;2022-09-21T04:41:07;9.70;90.80
14095;DHT22;18096;48.142;16.290;2022-09-21T04:43:32;9.70;90.90
14095;DHT22;18096;48.142;16.290;2022-09-21T04:46:06;9.70;90.90
14095;DHT22;18096;48.142;16.290;2022-09-21T04:48:32;9.70;91.20
14095;DHT22;18096;48.142;16.290;2022-09-21T04:50:58;9.70;91.00
14095;DHT22;18096;48.142;16.290;2022-09-21T04:53:24;9.70;91.00
14095;DHT22;18096;48.142;16.290;2022-09-21T04:55:49;9.60;91.10
14095;DHT22;18096;48.142;16.290;2022-09-21T04:58:15;9.60;91.10
14095;DHT22;18096;48.142;16.290;2022-09-21T05:00:41;9.70;91.10
14095;DHT22;18096;48.142;16.290;2022-09-21T05:03:07;9.70;91.10
14095;DHT22;18096;48.142;16.290;2022-09-21T05:05:32;9.70;91.10
14095;DHT22;18096;48.142;16.290;2022-09-21T05:07:58;9.70;91.10
14095;DHT22;18096;48.142;16.290;2022-09-21T05:10:23;9.70;91.00
14095;DHT22;18096;48.142;16.290;2022-09-21T05:12:49;9.80;91.00
14095;DHT22;18096;48.142;16.290;2022-09-21T05:15:16;9.80;93.10
14095;DHT22;18096;48.142;16.290;2022-09-21T05:17:43;10.20;93.70
14095;DHT22;18096;48.142;16.290;2022-09-21T05:20:09;10.60;92.80
14095;DHT22;18096;48.142;16.290;2022-09-21T05:22:35;11.00;91.80
14095;DHT22;18096;48.142;16.290;2022-09-21T05:25:02;11.20;91.00
14095;DHT22;18096;48.142;16.290;2022-09-21T05:27:28;11.30;89.90
14095;DHT22;18096;48.142;16.290;2022-09-21T05:29:53;11.40;90.00
14095;DHT22;18096;48.142;16.290;2022-09-21T05:35:34;11.40;87.90
14095;DHT22;18096;48.142;16.290;2022-09-21T05:40:57;11.00;87.60
14095;DHT22;18096;48.142;16.290;2022-09-21T05:43:23;10.80;88.20
14095;DHT22;18096;48.142;16.290;2022-09-21T05:46:00;10.70;88.40
14095;DHT22;18096;48.142;16.290;2022-09-21T05:48:32;10.60;88.80
14095;DHT22;18096;48.142;16.290;2022-09-21T05:51:03;10.50;89.10
14095;DHT22;18096;48.142;16.290;2022-09-21T05:56:35;10.40;89.40
14095;DHT22;18096;48.142;16.290;2022-09-21T06:01:37;10.40;89.70
14095;DHT22;18096;48.142;16.290;2022-09-21T06:04:09;10.40;89.60
14095;DHT22;18096;48.142;16.290;2022-09-21T06:06:37;10.40;89.70
14095;DHT22;18096;48.142;16.290;2022-09-21T06:09:03;10.50;89.60
14095;DHT22;18096;48.142;16.290;2022-09-21T06:11:28;10.50;89.80
14095;DHT22;18096;48.142;16.290;2022-09-21T06:13:54;10.60;89.40
14095;DHT22;18096;48.142;16.290;2022-09-21T06:16:20;10.70;89.10
14095;DHT22;18096;48.142;16.290;2022-09-21T06:18:45;10.70;88.80
14095;DHT22;18096;48.142;16.290;2022-09-21T06:21:11;10.70;88.40
14095;DHT22;18096;48.142;16.290;2022-09-21T06:23:37;10.70;88.40
14095;DHT22;18096;48.142;16.290;2022-09-21T06:26:03;10.70;88.10
14095;DHT22;18096;48.142;16.290;2022-09-21T06:28:28;10.70;88.20
14095;DHT22;18096;48.142;16.290;2022-09-21T06:30:56;10.70;87.70
14095;DHT22;18096;48.142;16.290;2022-09-21T06:33:22;10.70;87.90
14095;DHT22;18096;48.142;16.290;2022-09-21T06:35:53;10.60;87.80
14095;DHT22;18096;48.142;16.290;2022-09-21T06:38:19;10.60;88.00
14095;DHT22;18096;48.142;16.290;2022-09-21T06:40:45;10.60;87.90
14095;DHT22;18096;48.142;16.290;2022-09-21T06:43:10;10.60;87.80
14095;DHT22;18096;48.142;16.290;2022-09-21T06:45:36;10.60;87.70
14095;DHT22;18096;48.142;16.290;2022-09-21T06:48:01;10.60;87.60
14095;DHT22;18096;48.142;16.290;2022-09-21T06:50:27;10.50;87.70
14095;DHT22;18096;48.142;16.290;2022-09-21T06:52:53;10.50;87.90
14095;DHT22;18096;48.142;16.290;2022-09-21T06:55:18;10.50;88.00
14095;DHT22;18096;48.142;16.290;2022-09-21T06:57:44;10.50;88.10
14095;DHT22;18096;48.142;16.290;2022-09-21T07:00:11;10.50;88.00
14095;DHT22;18096;48.142;16.290;2022-09-21T07:02:38;10.50;87.80
14095;DHT22;18096;48.142;16.290;2022-09-21T07:05:06;10.60;87.80
14095;DHT22;18096;48.142;16.290;2022-09-21T07:07:32;10.60;87.60
14095;DHT22;18096;48.142;16.290;2022-09-21T07:09:58;10.60;87.40
14095;DHT22;18096;48.142;16.290;2022-09-21T07:12:29;10.60;87.10
14095;DHT22;18096;48.142;16.290;2022-09-21T07:15:00;10.70;87.30
14095;DHT22;18096;48.142;16.290;2022-09-21T07:17:31;10.70;86.80
14095;DHT22;18096;48.142;16.290;2022-09-21T07:19:57;10.70;86.70
14095;DHT22;18096;48.142;16.290;2022-09-21T07:22:22;10.70;86.40
14095;DHT22;18096;48.142;16.290;2022-09-21T07:24:48;10.70;86.60
14095;DHT22;18096;48.142;16.290;2022-09-21T07:27:14;10.70;86.70
14095;DHT22;18096;48.142;16.290;2022-09-21T07:29:40;10.70;86.20
14095;DHT22;18096;48.142;16.290;2022-09-21T07:32:05;10.70;86.20
14095;DHT22;18096;48.142;16.290;2022-09-21T07:34:34;10.70;86.10
14095;DHT22;18096;48.142;16.290;2022-09-21T07:37:01;10.70;86.30
14095;DHT22;18096;48.142;16.290;2022-09-21T07:39:27;10.80;86.10
14095;DHT22;18096;48.142;16.290;2022-09-21T07:41:53;10.90;86.00
14095;DHT22;18096;48.142;16.290;2022-09-21T07:44:18;11.00;86.20
14095;DHT22;18096;48.142;16.290;2022-09-21T07:46:48;11.00;85.90
14095;DHT22;18096;48.142;16.290;2022-09-21T07:49:13;11.10;85.80
14095;DHT22;18096;48.142;16.290;2022-09-21T07:51:39;11.20;85.80
14095;DHT22;18096;48.142;16.290;2022-09-21T07:54:05;11.20;85.90
14095;DHT22;18096;48.142;16.290;2022-09-21T07:56:30;11.20;85.70
14095;DHT22;18096;48.142;16.290;2022-09-21T07:58:56;11.30;85.70
14095;DHT22;18096;48.142;16.290;2022-09-21T08:01:35;11.30;86.00
14095;DHT22;18096;48.142;16.290;2022-09-21T08:04:04;11.30;86.20
14095;DHT22;18096;48.142;16.290;2022-09-21T08:06:31;11.30;86.00
14095;DHT22;18096;48.142;16.290;2022-09-21T08:09:01;11.30;85.90
14095;DHT22;18096;48.142;16.290;2022-09-21T08:11:28;11.30;85.80
14095;DHT22;18096;48.142;16.290;2022-09-21T08:14:02;11.30;85.80
14095;DHT22;18096;48.142;16.290;2022-09-21T08:16:29;11.30;86.40
14095;DHT22;18096;48.142;16.290;2022-09-21T08:18:55;11.40;85.80
14095;DHT22;18096;48.142;16.290;2022-09-21T08:21:21;11.40;85.70
14095;DHT22;18096;48.142;16.290;2022-09-21T08:23:47;11.40;85.80
14095;DHT22;18096;48.142;16.290;2022-09-21T08:26:15;11.40;85.70
14095;DHT22;18096;48.142;16.290;2022-09-21T08:28:49;11.50;85.70
14095;DHT22;18096;48.142;16.290;2022-09-21T08:31:17;11.50;85.60
14095;DHT22;18096;48.142;16.290;2022-09-21T08:33:44;11.60;85.90
14095;DHT22;18096;48.142;16.290;2022-09-21T08:36:10;11.60;85.50
14095;DHT22;18096;48.142;16.290;2022-09-21T08:38:37;11.60;85.10
14095;DHT22;18096;48.142;16.290;2022-09-21T08:43:51;11.70;84.80
14095;DHT22;18096;48.142;16.290;2022-09-21T08:46:24;11.70;84.50
14095;DHT22;18096;48.142;16.290;2022-09-21T08:48:58;11.70;84.70
14095;DHT22;18096;48.142;16.290;2022-09-21T08:51:29;11.70;84.50
14095;DHT22;18096;48.142;16.290;2022-09-21T08:53:59;11.80;84.60
14095;DHT22;18096;48.142;16.290;2022-09-21T08:56:26;11.80;84.60
14095;DHT22;18096;48.142;16.290;2022-09-21T08:58:52;11.80;84.70
14095;DHT22;18096;48.142;16.290;2022-09-21T09:01:47;11.80;84.60
14095;DHT22;18096;48.142;16.290;2022-09-21T09:04:44;11.80;84.30
14095;DHT22;18096;48.142;16.290;2022-09-21T09:12:47;12.00;83.80
14095;DHT22;18096;48.142;16.290;2022-09-21T09:15:43;12.00;83.50
14095;DHT22;18096;48.142;16.290;2022-09-21T09:18:40;12.10;83.50
14095;DHT22;18096;48.142;16.290;2022-09-21T09:21:28;12.10;83.40
14095;DHT22;18096;48.142;16.290;2022-09-21T09:24:09;12.10;83.20
14095;DHT22;18096;48.142;16.290;2022-09-21T09:31:43;12.10;82.60
14095;DHT22;18096;48.142;16.290;2022-09-21T09:34:15;12.10;82.60
14095;DHT22;18096;48.142;16.290;2022-09-21T09:36:47;12.10;83.30
14095;DHT22;18096;48.142;16.290;2022-09-21T09:39:15;12.20;82.60
14095;DHT22;18096;48.142;16.290;2022-09-21T09:42:23;12.30;82.60
14095;DHT22;18096;48.142;16.290;2022-09-21T09:50:07;12.60;82.10
14095;DHT22;18096;48.142;16.290;2022-09-21T09:52:34;12.60;81.40
14095;DHT22;18096;48.142;16.290;2022-09-21T09:57:46;12.70;81.30
14095;DHT22;18096;48.142;16.290;2022-09-21T10:00:15;12.80;80.30
14095;DHT22;18096;48.142;16.290;2022-09-21T10:02:53;12.90;80.00
14095;DHT22;18096;48.142;16.290;2022-09-21T10:07:45;12.90;79.40
14095;DHT22;18096;48.142;16.290;2022-09-21T10:10:30;12.90;79.90
14095;DHT22;18096;48.142;16.290;2022-09-21T10:15:48;12.90;80.70
14095;DHT22;18096;48.142;16.290;2022-09-21T10:18:19;12.80;80.80
14095;DHT22;18096;48.142;16.290;2022-09-21T10:20:53;12.90;80.70
14095;DHT22;18096;48.142;16.290;2022-09-21T10:23:19;12.90;80.50
14095;DHT22;18096;48.142;16.290;2022-09-21T10:25:55;13.00;80.00
14095;DHT22;18096;48.142;16.290;2022-09-21T10:28:23;13.00;79.10
14095;DHT22;18096;48.142;16.290;2022-09-21T10:30:49;13.10;78.80
14095;DHT22;18096;48.142;16.290;2022-09-21T10:33:23;13.10;79.10
14095;DHT22;18096;48.142;16.290;2022-09-21T10:35:51;13.20;78.80
14095;DHT22;18096;48.142;16.290;2022-09-21T10:38:19;13.20;78.40
14095;DHT22;18096;48.142;16.290;2022-09-21T10:40:45;13.30;78.70
14095;DHT22;18096;48.142;16.290;2022-09-21T10:43:24;13.30;79.10
14095;DHT22;18096;48.142;16.290;2022-09-21T10:45:55;13.40;79.10
14095;DHT22;18096;48.142;16.290;2022-09-21T10:48:23;13.50;77.00
14095;DHT22;18096;48.142;16.290;2022-09-21T10:50:50;13.40;77.00
14095;DHT22;18096;48.142;16.290;2022-09-21T10:53:29;13.40;77.80
14095;DHT22;18096;48.142;16.290;2022-09-21T10:56:02;13.40;78.60
14095;DHT22;18096;48.142;16.290;2022-09-21T10:58:29;13.40;78.80
14095;DHT22;18096;48.142;16.290;2022-09-21T11:01:12;13.40;78.90
14095;DHT22;18096;48.142;16.290;2022-09-21T11:06:32;13.30;79.20
14095;DHT22;18096;48.142;16.290;2022-09-21T11:14:58;13.30;79.40
14095;DHT22;18096;48.142;16.290;2022-09-21T11:20:57;13.30;79.60
14095;DHT22;18096;48.142;16.290;2022-09-21T11:23:41;13.30;79.20
14095;DHT22;18096;48.142;16.290;2022-09-21T11:26:28;13.30;78.70
14095;DHT22;18096;48.142;16.290;2022-09-21T11:29:09;13.20;79.00
14095;DHT22;18096;48.142;16.290;2022-09-21T11:32:01;13.20;79.50
14095;DHT22;18096;48.142;16.290;2022-09-21T11:38:48;13.20;80.10
14095;DHT22;18096;48.142;16.290;2022-09-21T11:43:36;13.30;80.30
14095;DHT22;18096;48.142;16.290;2022-09-21T11:57:13;13.70;79.50
14095;DHT22;18096;48.142;16.290;2022-09-21T12:11:07;13.80;78.70
14095;DHT22;18096;48.142;16.290;2022-09-21T12:13:39;13.80;78.30
14095;DHT22;18096;48.142;16.290;2022-09-21T12:21:48;13.70;78.10
14095;DHT22;18096;48.142;16.290;2022-09-21T12:24:20;13.70;78.60
14095;DHT22;18096;48.142;16.290;2022-09-21T12:26:49;13.70;78.80
14095;DHT22;18096;48.142;16.290;2022-09-21T12:34:40;13.70;78.50
14095;DHT22;18096;48.142;16.290;2022-09-21T12:45:18;13.70;77.70
14095;DHT22;18096;48.142;16.290;2022-09-21T12:52:55;13.80;78.60
14095;DHT22;18096;48.142;16.290;2022-09-21T12:56:02;13.80;79.10
14095;DHT22;18096;48.142;16.290;2022-09-21T13:01:36;13.90;77.90
14095;DHT22;18096;48.142;16.290;2022-09-21T13:04:33;13.90;77.90
14095;DHT22;18096;48.142;16.290;2022-09-21T13:07:31;13.90;77.70
14095;DHT22;18096;48.142;16.290;2022-09-21T13:10:17;14.00;77.70
14095;DHT22;18096;48.142;16.290;2022-09-21T13:12:45;14.00;78.00
14095;DHT22;18096;48.142;16.290;2022-09-21T13:18:05;14.00;76.90
14095;DHT22;18096;48.142;16.290;2022-09-21T13:20:38;14.00;77.10
14095;DHT22;18096;48.142;16.290;2022-09-21T13:23:17;14.00;76.90
14095;DHT22;18096;48.142;16.290;2022-09-21T13:26:18;14.00;77.10
14095;DHT22;18096;48.142;16.290;2022-09-21T13:31:53;14.10;77.10
14095;DHT22;18096;48.142;16.290;2022-09-21T13:39:48;14.20;76.50
14095;DHT22;18096;48.142;16.290;2022-09-21T13:47:56;14.30;75.30
14095;DHT22;18096;48.142;16.290;2022-09-21T13:50:40;14.30;74.40
14095;DHT22;18096;48.142;16.290;2022-09-21T13:53:22;14.30;74.30
14095;DHT22;18096;48.142;16.290;2022-09-21T13:55:51;14.30;75.00
14095;DHT22;18096;48.142;16.290;2022-09-21T13:58:31;14.30;75.50
14095;DHT22;18096;48.142;16.290;2022-09-21T14:01:05;14.30;75.80
14095;DHT22;18096;48.142;16.290;2022-09-21T14:03:41;14.40;75.90
14095;DHT22;18096;48.142;16.290;2022-09-21T14:06:27;14.40;75.40
14095;DHT22;18096;48.142;16.290;2022-09-21T14:09:02;14.40;75.30
14095;DHT22;18096;48.142;16.290;2022-09-21T14:11:40;14.40;75.10
14095;DHT22;18096;48.142;16.290;2022-09-21T14:29:55;14.20;76.50
14095;DHT22;18096;48.142;16.290;2022-09-21T14:32:25;14.20;76.80
14095;DHT22;18096;48.142;16.290;2022-09-21T14:35:16;14.20;76.70
14095;DHT22;18096;48.142;16.290;2022-09-21T14:37:53;14.10;76.80
14095;DHT22;18096;48.142;16.290;2022-09-21T14:40:26;14.10;77.10
14095;DHT22;18096;48.142;16.290;2022-09-21T14:42:53;14.10;77.40
14095;DHT22;18096;48.142;16.290;2022-09-21T14:45:29;14.10;77.70
14095;DHT22;18096;48.142;16.290;2022-09-21T14:48:15;14.10;77.30
14095;DHT22;18096;48.142;16.290;2022-09-21T15:02:15;14.00;77.20
14095;DHT22;18096;48.142;16.290;2022-09-21T15:10:33;13.90;77.10
14095;DHT22;18096;48.142;16.290;2022-09-21T15:13:35;13.90;77.50
14095;DHT22;18096;48.142;16.290;2022-09-21T15:16:34;13.80;77.50
14095;DHT22;18096;48.142;16.290;2022-09-21T15:19:13;13.80;78.10
14095;DHT22;18096;48.142;16.290;2022-09-21T15:21:43;13.90;78.50
14095;DHT22;18096;48.142;16.290;2022-09-21T15:24:17;13.90;77.70
14095;DHT22;18096;48.142;16.290;2022-09-21T15:26:43;13.90;77.70
14095;DHT22;18096;48.142;16.290;2022-09-21T15:29:26;13.90;77.70
14095;DHT22;18096;48.142;16.290;2022-09-21T15:31:53;13.90;78.00
14095;DHT22;18096;48.142;16.290;2022-09-21T15:34:20;13.80;78.10
14095;DHT22;18096;48.142;16.290;2022-09-21T15:36:47;13.80;78.30
14095;DHT22;18096;48.142;16.290;2022-09-21T15:39:28;13.80;78.30
14095;DHT22;18096;48.142;16.290;2022-09-21T15:42:15;13.80;78.30
14095;DHT22;18096;48.142;16.290;2022-09-21T15:44:47;13.70;78.40
14095;DHT22;18096;48.142;16.290;2022-09-21T15:47:21;13.70;78.50
14095;DHT22;18096;48.142;16.290;2022-09-21T15:49:48;13.70;78.80
14095;DHT22;18096;48.142;16.290;2022-09-21T15:52:38;13.60;78.90
14095;DHT22;18096;48.142;16.290;2022-09-21T15:55:17;13.60;79.00
14095;DHT22;18096;48.142;16.290;2022-09-21T15:57:50;13.60;79.30
14095;DHT22;18096;48.142;16.290;2022-09-21T16:00:19;13.50;79.30
14095;DHT22;18096;48.142;16.290;2022-09-21T16:05:43;13.60;79.60
14095;DHT22;18096;48.142;16.290;2022-09-21T16:14:29;13.50;79.30
14095;DHT22;18096;48.142;16.290;2022-09-21T16:22:13;13.50;79.40
14095;DHT22;18096;48.142;16.290;2022-09-21T16:24:49;13.50;79.50
14095;DHT22;18096;48.142;16.290;2022-09-21T16:27:18;13.50;79.60
14095;DHT22;18096;48.142;16.290;2022-09-21T16:29:45;13.40;79.60
14095;DHT22;18096;48.142;16.290;2022-09-21T16:34:47;13.40;79.90
14095;DHT22;18096;48.142;16.290;2022-09-21T16:37:25;13.30;79.90
14095;DHT22;18096;48.142;16.290;2022-09-21T16:39:57;13.30;80.10
14095;DHT22;18096;48.142;16.290;2022-09-21T16:42:26;13.30;80.00
14095;DHT22;18096;48.142;16.290;2022-09-21T16:44:55;13.30;80.10
14095;DHT22;18096;48.142;16.290;2022-09-21T16:47:24;13.20;80.20
14095;DHT22;18096;48.142;16.290;2022-09-21T16:49:58;13.20;80.40
14095;DHT22;18096;48.142;16.290;2022-09-21T16:52:28;13.20;80.40
14095;DHT22;18096;48.142;16.290;2022-09-21T16:54:55;13.10;80.30
14095;DHT22;18096;48.142;16.290;2022-09-21T16:57:21;13.10;80.30
14095;DHT22;18096;48.142;16.290;2022-09-21T16:59:48;13.10;80.50
14095;DHT22;18096;48.142;16.290;2022-09-21T17:02:15;13.00;80.30
14095;DHT22;18096;48.142;16.290;2022-09-21T17:04:42;13.00;80.20
14095;DHT22;18096;48.142;16.290;2022-09-21T17:07:14;12.90;80.10
14095;DHT22;18096;48.142;16.290;2022-09-21T17:09:43;12.90;80.00
14095;DHT22;18096;48.142;16.290;2022-09-21T17:12:13;12.80;79.90
14095;DHT22;18096;48.142;16.290;2022-09-21T17:14:39;12.80;80.20
14095;DHT22;18096;48.142;16.290;2022-09-21T17:17:18;12.80;80.10
14095;DHT22;18096;48.142;16.290;2022-09-21T17:19:45;12.70;80.00
14095;DHT22;18096;48.142;16.290;2022-09-21T17:22:12;12.70;80.10
14095;DHT22;18096;48.142;16.290;2022-09-21T17:24:48;12.60;80.00
14095;DHT22;18096;48.142;16.290;2022-09-21T17:27:17;12.60;80.00
14095;DHT22;18096;48.142;16.290;2022-09-21T17:29:44;12.60;80.20
14095;DHT22;18096;48.142;16.290;2022-09-21T17:32:19;12.50;79.80
14095;DHT22;18096;48.142;16.290;2022-09-21T17:34:45;12.50;79.60
14095;DHT22;18096;48.142;16.290;2022-09-21T17:37:11;12.50;79.20
14095;DHT22;18096;48.142;16.290;2022-09-21T17:39:37;12.40;78.60
14095;DHT22;18096;48.142;16.290;2022-09-21T17:42:20;12.40;78.40
14095;DHT22;18096;48.142;16.290;2022-09-21T17:47:28;12.30;78.30
14095;DHT22;18096;48.142;16.290;2022-09-21T17:50:34;12.30;78.50
14095;DHT22;18096;48.142;16.290;2022-09-21T17:52:54;12.30;78.50
14095;DHT22;18096;48.142;16.290;2022-09-21T17:55:43;12.20;78.20
14095;DHT22;18096;48.142;16.290;2022-09-21T18:03:46;12.20;77.60
14095;DHT22;18096;48.142;16.290;2022-09-21T18:06:13;12.20;77.70
14095;DHT22;18096;48.142;16.290;2022-09-21T18:08:39;12.20;77.80
14095;DHT22;18096;48.142;16.290;2022-09-21T18:11:10;12.20;78.00
14095;DHT22;18096;48.142;16.290;2022-09-21T18:16:36;12.20;78.10
14095;DHT22;18096;48.142;16.290;2022-09-21T18:19:29;12.20;78.20
14095;DHT22;18096;48.142;16.290;2022-09-21T18:22:07;12.10;78.10
14095;DHT22;18096;48.142;16.290;2022-09-21T18:24:35;12.10;78.30
14095;DHT22;18096;48.142;16.290;2022-09-21T18:27:01;12.10;78.30
14095;DHT22;18096;48.142;16.290;2022-09-21T18:29:32;12.10;78.30
14095;DHT22;18096;48.142;16.290;2022-09-21T18:37:33;12.10;78.30
14095;DHT22;18096;48.142;16.290;2022-09-21T18:45:46;12.00;77.90
14095;DHT22;18096;48.142;16.290;2022-09-21T18:48:32;12.00;78.00
14095;DHT22;18096;48.142;16.290;2022-09-21T18:51:09;12.00;78.00
14095;DHT22;18096;48.142;16.290;2022-09-21T18:53:48;12.00;77.90
14095;DHT22;18096;48.142;16.290;2022-09-21T18:56:15;12.00;78.00
14095;DHT22;18096;48.142;16.290;2022-09-21T18:58:41;11.90;78.00
14095;DHT22;18096;48.142;16.290;2022-09-21T19:01:10;11.90;78.10
14095;DHT22;18096;48.142;16.290;2022-09-21T19:03:37;11.90;78.10
14095;DHT22;18096;48.142;16.290;2022-09-21T19:08:48;11.90;77.80
14095;DHT22;18096;48.142;16.290;2022-09-21T19:11:24;11.90;77.80
14095;DHT22;18096;48.142;16.290;2022-09-21T19:14:18;11.90;78.00